Schneifelwetter: Wetterstation Hallschlag, 537 m . NN
Wetterdaten: Samstag, 15.09.2012
Datum Zeit Temp. A. Feuchte A. Luftdruck Regen Wind Richtung Richtung Sonnenschein T Regen Taupunkt Windchill
15.09.2012 00:14 10,0 C 95 % 1013 hPa 0,0 l/m 0,0 km/h (0 Bft) W 270 0 min 0 min 9,2 C 10,0 C
15.09.2012 00:29 9,9 C 95 % 1013 hPa 0,0 l/m 0,0 km/h (0 Bft) W 270 0 min 0 min 9,1 C 9,9 C
15.09.2012 00:44 9,8 C 95 % 1013 hPa 0,0 l/m 4,2 km/h (1 Bft) W 270 0 min 0 min 9,0 C 9,8 C
15.09.2012 00:59 9,8 C 95 % 1014 hPa 0,0 l/m 0,0 km/h (0 Bft) W 270 0 min 0 min 9,0 C 9,8 C
15.09.2012 01:14 9,7 C 95 % 1013 hPa 0,3 l/m 0,2 km/h (0 Bft) W 270 0 min 15 min 8,9 C 9,7 C
15.09.2012 01:29 9,6 C 95 % 1014 hPa 0,0 l/m 3,6 km/h (1 Bft) W 270 0 min 0 min 8,8 C 9,6 C
15.09.2012 01:44 9,1 C 95 % 1014 hPa 0,0 l/m 0,4 km/h (0 Bft) W 270 0 min 0 min 8,3 C 9,1 C
15.09.2012 01:59 8,6 C 94 % 1014 hPa 0,0 l/m 0,0 km/h (0 Bft) W 270 0 min 0 min 7,7 C 8,6 C
15.09.2012 02:14 8,1 C 94 % 1014 hPa 0,0 l/m 0,0 km/h (0 Bft) W 270 0 min 0 min 7,2 C 8,1 C
15.09.2012 02:29 7,6 C 94 % 1014 hPa 0,0 l/m 0,0 km/h (0 Bft) W 270 0 min 0 min 6,7 C 7,6 C
15.09.2012 02:44 7,2 C 95 % 1014 hPa 0,0 l/m 0,0 km/h (0 Bft) W 270 0 min 0 min 6,5 C 7,2 C
15.09.2012 03:00 7,3 C 95 % 1014 hPa 0,0 l/m 0,0 km/h (0 Bft) W 270 0 min 0 min 6,6 C 7,3 C
15.09.2012 03:15 7,5 C 96 % 1014 hPa 0,0 l/m 0,0 km/h (0 Bft) W 270 0 min 0 min 6,9 C 7,5 C
15.09.2012 03:30 7,7 C 96 % 1014 hPa 0,0 l/m 0,0 km/h (0 Bft) W 270 0 min 0 min 7,1 C 7,7 C
15.09.2012 03:45 7,8 C 96 % 1014 hPa 0,0 l/m 0,0 km/h (0 Bft) W 270 0 min 0 min 7,2 C 7,8 C
15.09.2012 04:00 7,9 C 96 % 1014 hPa 0,0 l/m 0,0 km/h (0 Bft) W 270 0 min 0 min 7,3 C 7,9 C
15.09.2012 04:15 8,0 C 96 % 1014 hPa 0,0 l/m 0,0 km/h (0 Bft) W 270 0 min 0 min 7,4 C 8,0 C
15.09.2012 04:30 8,2 C 96 % 1014 hPa 0,0 l/m 0,0 km/h (0 Bft) W 270 0 min 0 min 7,6 C 8,2 C
15.09.2012 04:44 8,3 C 96 % 1014 hPa 0,0 l/m 0,0 km/h (0 Bft) W 270 0 min 0 min 7,7 C 8,3 C
15.09.2012 04:59 8,2 C 96 % 1014 hPa 0,0 l/m 0,0 km/h (0 Bft) W 265 0 min 0 min 7,6 C 8,2 C
15.09.2012 05:14 8,2 C 96 % 1014 hPa 0,0 l/m 0,0 km/h (0 Bft) W 265 0 min 0 min 7,6 C 8,2 C
15.09.2012 05:29 7,8 C 96 % 1015 hPa 0,0 l/m 0,0 km/h (0 Bft) W 265 0 min 0 min 7,2 C 7,8 C
15.09.2012 05:44 7,9 C 96 % 1015 hPa 0,0 l/m 0,0 km/h (0 Bft) W 265 0 min 0 min 7,3 C 7,9 C
15.09.2012 05:59 7,9 C 96 % 1015 hPa 0,0 l/m 0,0 km/h (0 Bft) W 265 0 min 0 min 7,3 C 7,9 C
15.09.2012 06:14 8,2 C 97 % 1015 hPa 0,0 l/m 0,0 km/h (0 Bft) W 265 0 min 0 min 7,8 C 8,2 C
15.09.2012 06:29 8,5 C 97 % 1015 hPa 0,0 l/m 0,0 km/h (0 Bft) W 265 0 min 0 min 8,1 C 8,5 C
15.09.2012 06:44 8,6 C 96 % 1015 hPa 0,0 l/m 0,0 km/h (0 Bft) W 265 0 min 0 min 8,0 C 8,6 C
15.09.2012 06:59 8,7 C 97 % 1015 hPa 0,0 l/m 0,0 km/h (0 Bft) W 265 0 min 0 min 8,3 C 8,7 C
15.09.2012 07:14 8,8 C 97 % 1015 hPa 0,0 l/m 0,0 km/h (0 Bft) W 265 0 min 0 min 8,4 C 8,8 C
15.09.2012 07:29 9,1 C 97 % 1016 hPa 0,0 l/m 6,4 km/h (2 Bft) W 265 0 min 0 min 8,6 C 9,1 C
15.09.2012 07:44 9,1 C 97 % 1016 hPa 0,0 l/m 0,0 km/h (0 Bft) W 265 0 min 0 min 8,6 C 9,1 C
15.09.2012 07:59 9,3 C 97 % 1016 hPa 0,0 l/m 1,0 km/h (0 Bft) W 270 0 min 0 min 8,8 C 9,3 C
15.09.2012 08:14 9,5 C 97 % 1016 hPa 0,0 l/m 0,0 km/h (0 Bft) W-SW 255 0 min 0 min 9,0 C 9,5 C
15.09.2012 08:29 9,6 C 97 % 1016 hPa 0,0 l/m 10,0 km/h (2 Bft) W-SW 255 0 min 0 min 9,1 C 7,2 C
15.09.2012 08:44 9,9 C 97 % 1016 hPa 0,0 l/m 10,0 km/h (2 Bft) W-SW 250 0 min 0 min 9,4 C 7,5 C
15.09.2012 08:59 10,0 C 97 % 1016 hPa 0,0 l/m 0,8 km/h (0 Bft) W-SW 250 0 min 0 min 9,5 C 10,0 C
15.09.2012 09:14 10,0 C 97 % 1016 hPa 0,0 l/m 10,6 km/h (2 Bft) W-SW 250 0 min 0 min 9,5 C 7,3 C
15.09.2012 09:29 10,4 C 97 % 1016 hPa 0,0 l/m 14,0 km/h (3 Bft) W-SW 250 0 min 0 min 9,9 C 6,0 C
15.09.2012 09:44 10,8 C 97 % 1017 hPa 0,0 l/m 14,1 km/h (3 Bft) W-SW 250 0 min 0 min 10,3 C 6,5 C
15.09.2012 09:59 11,1 C 97 % 1017 hPa 0,0 l/m 10,8 km/h (2 Bft) W22.5 260 0 min 0 min 10,6 C 8,4 C
15.09.2012 10:14 11,5 C 96 % 1017 hPa 0,0 l/m 10,1 km/h (2 Bft) W-SW 250 0 min 0 min 10,9 C 9,2 C
15.09.2012 10:29 11,9 C 96 % 1017 hPa 0,0 l/m 10,5 km/h (2 Bft) W22.5 260 0 min 0 min 11,3 C 9,4 C
15.09.2012 10:44 12,3 C 95 % 1017 hPa 0,0 l/m 10,8 km/h (2 Bft) W-SW22.5 250 0 min 0 min 11,5 C 9,7 C
15.09.2012 10:59 12,5 C 94 % 1017 hPa 0,0 l/m 7,9 km/h (2 Bft) W-SW 255 0 min 0 min 11,6 C 11,5 C
15.09.2012 11:14 12,6 C 92 % 1017 hPa 0,0 l/m 14,8 km/h (3 Bft) W22.5 265 0 min 0 min 11,3 C 8,4 C
15.09.2012 11:29 13,1 C 92 % 1017 hPa 0,0 l/m 7,7 km/h (2 Bft) W-SW 240 0 min 0 min 11,8 C 12,3 C
15.09.2012 11:44 13,4 C 91 % 1017 hPa 0,0 l/m 10,3 km/h (2 Bft) SW22.5 235 0 min 0 min 12,0 C 11,2 C
15.09.2012 11:59 13,4 C 89 % 1017 hPa 0,0 l/m 8,8 km/h (2 Bft) W22.5 270 0 min 0 min 11,6 C 12,0 C
15.09.2012 12:15 13,6 C 88 % 1017 hPa 0,0 l/m 14,7 km/h (3 Bft) W-SW45 245 0 min 0 min 11,6 C 9,6 C
15.09.2012 12:29 13,9 C 86 % 1017 hPa 0,0 l/m 13,5 km/h (3 Bft) W-SW45 255 0 min 0 min 11,6 C 10,4 C
15.09.2012 12:44 13,8 C 86 % 1017 hPa 0,0 l/m 10,3 km/h (2 Bft) W-SW45 240 0 min 0 min 11,5 C 11,6 C
15.09.2012 12:59 13,8 C 86 % 1017 hPa 0,0 l/m 11,5 km/h (2 Bft) W22.5 265 0 min 0 min 11,5 C 11,1 C
15.09.2012 13:14 14,4 C 82 % 1017 hPa 0,0 l/m 17,7 km/h (3 Bft) W22.5 265 0 min 0 min 11,4 C 9,6 C
15.09.2012 13:29 14,5 C 80 % 1017 hPa 0,0 l/m 18,0 km/h (3 Bft) W45 260 0 min 0 min 11,1 C 9,6 C
15.09.2012 13:45 14,8 C 79 % 1017 hPa 0,0 l/m 14,5 km/h (3 Bft) W45 265 0 min 0 min 11,2 C 11,1 C
15.09.2012 13:59 15,5 C 79 % 1017 hPa 0,0 l/m 11,5 km/h (2 Bft) S-SW45 200 0 min 0 min 11,9 C 13,0 C
15.09.2012 14:14 15,8 C 77 % 1017 hPa 0,0 l/m 11,8 km/h (2 Bft) SW45 235 0 min 0 min 11,8 C 13,3 C
15.09.2012 14:29 15,8 C 77 % 1017 hPa 0,0 l/m 9,1 km/h (2 Bft) W-SW22.5 240 0 min 0 min 11,8 C 14,4 C
15.09.2012 14:44 16,1 C 75 % 1017 hPa 0,0 l/m 16,6 km/h (3 Bft) W22.5 270 0 min 0 min 11,7 C 12,1 C
15.09.2012 14:59 15,8 C 74 % 1017 hPa 0,0 l/m 14,8 km/h (3 Bft) SW22.5 215 0 min 0 min 11,2 C 12,2 C
15.09.2012 15:15 15,6 C 75 % 1017 hPa 0,0 l/m 17,8 km/h (3 Bft) W45 260 0 min 0 min 11,2 C 11,1 C
15.09.2012 15:29 15,7 C 74 % 1017 hPa 0,0 l/m 17,3 km/h (3 Bft) W22.5 275 0 min 0 min 11,1 C 11,4 C
15.09.2012 15:44 16,0 C 71 % 1017 hPa 0,0 l/m 14,9 km/h (3 Bft) W-SW22.5 250 0 min 0 min 10,7 C 12,4 C
15.09.2012 15:59 16,3 C 69 % 1017 hPa 0,0 l/m 21,0 km/h (4 Bft) W22.5 265 0 min 0 min 10,6 C 11,2 C
15.09.2012 16:14 15,9 C 69 % 1017 hPa 0,0 l/m 14,7 km/h (3 Bft) W45 260 0 min 0 min 10,2 C 12,4 C
15.09.2012 16:29 15,3 C 71 % 1017 hPa 0,0 l/m 13,0 km/h (3 Bft) W22.5 260 0 min 0 min 10,1 C 12,2 C
15.09.2012 16:45 15,6 C 71 % 1017 hPa 0,0 l/m 12,1 km/h (2 Bft) W-SW 250 0 min 0 min 10,4 C 12,9 C
15.09.2012 16:59 16,2 C 69 % 1017 hPa 0,0 l/m 17,4 km/h (3 Bft) W22.5 260 0 min 0 min 10,5 C 12,0 C
15.09.2012 17:14 16,0 C 69 % 1017 hPa 0,0 l/m 19,1 km/h (3 Bft) W22.5 260 0 min 0 min 10,3 C 11,3 C
15.09.2012 17:29 15,3 C 70 % 1017 hPa 0,0 l/m 13,1 km/h (3 Bft) W-SW22.5 250 0 min 0 min 9,9 C 12,2 C
15.09.2012 17:44 15,1 C 71 % 1017 hPa 0,0 l/m 12,5 km/h (3 Bft) SW45 230 0 min 0 min 9,9 C 12,2 C
15.09.2012 17:59 14,9 C 72 % 1017 hPa 0,0 l/m 11,2 km/h (2 Bft) W-SW22.5 255 0 min 0 min 9,9 C 12,5 C
15.09.2012 18:15 15,0 C 72 % 1017 hPa 0,0 l/m 19,0 km/h (3 Bft) W-SW22.5 250 0 min 0 min 10,0 C 10,0 C
15.09.2012 18:29 14,5 C 72 % 1017 hPa 0,0 l/m 17,5 km/h (3 Bft) W-SW22.5 250 0 min 0 min 9,5 C 9,8 C
15.09.2012 18:44 13,8 C 73 % 1017 hPa 0,0 l/m 0,0 km/h (0 Bft) W-SW 250 0 min 0 min 9,0 C 13,8 C
15.09.2012 18:59 13,1 C 76 % 1017 hPa 0,0 l/m 0,0 km/h (0 Bft) W-SW 250 0 min 0 min 9,0 C 13,1 C
15.09.2012 19:14 12,7 C 77 % 1017 hPa 0,0 l/m 0,0 km/h (0 Bft) W-SW 250 0 min 0 min 8,8 C 12,7 C
15.09.2012 19:29 11,8 C 79 % 1017 hPa 0,0 l/m 0,0 km/h (0 Bft) W-SW 250 0 min 0 min 8,3 C 11,8 C
15.09.2012 19:45 11,2 C 80 % 1017 hPa 0,0 l/m 0,0 km/h (0 Bft) W-SW 250 0 min 0 min 7,9 C 11,2 C
15.09.2012 19:59 10,8 C 81 % 1016 hPa 0,0 l/m 0,0 km/h (0 Bft) W-SW 250 0 min 0 min 7,7 C 10,8 C
15.09.2012 20:14 9,9 C 82 % 1017 hPa 0,0 l/m 0,0 km/h (0 Bft) W-SW 250 0 min 0 min 7,0 C 9,9 C
15.09.2012 20:29 9,2 C 83 % 1017 hPa 0,0 l/m 0,0 km/h (0 Bft) W-SW 250 0 min 0 min 6,5 C 9,2 C
15.09.2012 20:44 8,5 C 84 % 1017 hPa 0,0 l/m 0,0 km/h (0 Bft) W-SW 250 0 min 0 min 6,0 C 8,5 C
15.09.2012 20:59 8,0 C 85 % 1017 hPa 0,0 l/m 0,0 km/h (0 Bft) W-SW 250 0 min 0 min 5,6 C 8,0 C
15.09.2012 21:15 7,6 C 86 % 1017 hPa 0,0 l/m 0,0 km/h (0 Bft) W-SW 250 0 min 0 min 5,4 C 7,6 C
15.09.2012 21:29 7,2 C 87 % 1017 hPa 0,0 l/m 0,0 km/h (0 Bft) W-SW 250 0 min 0 min 5,2 C 7,2 C
15.09.2012 21:44 6,9 C 87 % 1017 hPa 0,0 l/m 0,0 km/h (0 Bft) W-SW 250 0 min 0 min 4,9 C 6,9 C
15.09.2012 21:59 6,5 C 88 % 1017 hPa 0,0 l/m 0,0 km/h (0 Bft) W-SW 250 0 min 0 min 4,7 C 6,5 C
15.09.2012 22:14 6,1 C 88 % 1017 hPa 0,0 l/m 0,0 km/h (0 Bft) W-SW 250 0 min 0 min 4,3 C 6,1 C
15.09.2012 22:29 5,9 C 89 % 1017 hPa 0,0 l/m 0,0 km/h (0 Bft) W-SW 250 0 min 0 min 4,2 C 5,9 C
15.09.2012 22:45 5,7 C 90 % 1017 hPa 0,0 l/m 0,0 km/h (0 Bft) W-SW 250 0 min 0 min 4,2 C 5,7 C
15.09.2012 22:59 5,3 C 89 % 1017 hPa 0,0 l/m 0,0 km/h (0 Bft) W-SW 250 0 min 0 min 3,6 C 5,3 C
15.09.2012 23:14 4,9 C 90 % 1017 hPa 0,0 l/m 0,0 km/h (0 Bft) W-SW 250 0 min 0 min 3,4 C 4,9 C
15.09.2012 23:29 4,9 C 91 % 1017 hPa 0,0 l/m 0,0 km/h (0 Bft) W-SW 250 0 min 0 min 3,6 C 4,9 C
15.09.2012 23:44 4,7 C 91 % 1017 hPa 0,0 l/m 0,0 km/h (0 Bft) W-SW 250 0 min 0 min 3,4 C 4,7 C
15.09.2012 23:59 4,5 C 91 % 1017 hPa 0,0 l/m 0,0 km/h (0 Bft) W-SW 250 0 min 0 min 3,2 C 4,5 C
_ Min-Zeit 23:59 15:59 00:14 - 00:14 - - - - 23:59 23:59
Minimum _ 4,5 C 69 % 1013 hPa - 0,0 km/h (0 Bft) - - - - 3,2 C 4,5 C
_ Max-Zeit 15:59 06:14 09:44 01:14 15:59 - - 00:14 01:14 11:44 14:29
Maximum _ 16,3 C 97 % 1017 hPa 0,3 l/m 21,0 km/h
W (4 Bft)
- - 0 min 15 min 12,0 C 14,4 C
Durchschnitt _ 10,7 C 88 % 1016 hPa #0,3 l/m 5,8 km/h (1 Bft) W-SW - #0 min. #15 min. 8,6 C 9,4 C